sensor_id;sensor_type;location;lat;lon;timestamp;P1;durP1;ratioP1;P2;durP2;ratioP2
30337;SDS011;17143;51.888;5.408;2022-07-29T00:07:34;5.27;;;1.20;;
30337;SDS011;17143;51.888;5.408;2022-07-29T00:22:37;3.30;;;1.20;;
30337;SDS011;17143;51.888;5.408;2022-07-29T00:37:39;1.17;;;0.90;;
30337;SDS011;17143;51.888;5.408;2022-07-29T00:52:42;5.00;;;1.30;;
30337;SDS011;17143;51.888;5.408;2022-07-29T01:07:44;2.53;;;1.30;;
30337;SDS011;17143;51.888;5.408;2022-07-29T01:23:10;2.80;;;1.10;;
30337;SDS011;17143;51.888;5.408;2022-07-29T01:38:23;4.80;;;1.40;;
30337;SDS011;17143;51.888;5.408;2022-07-29T01:53:29;2.10;;;1.07;;
30337;SDS011;17143;51.888;5.408;2022-07-29T02:08:35;2.73;;;1.13;;
30337;SDS011;17143;51.888;5.408;2022-07-29T02:23:39;3.07;;;1.50;;
30337;SDS011;17143;51.888;5.408;2022-07-29T02:38:42;2.83;;;1.40;;
30337;SDS011;17143;51.888;5.408;2022-07-29T02:53:45;5.37;;;1.50;;
30337;SDS011;17143;51.888;5.408;2022-07-29T03:08:50;2.43;;;1.57;;
30337;SDS011;17143;51.888;5.408;2022-07-29T03:23:53;2.57;;;1.60;;
30337;SDS011;17143;51.888;5.408;2022-07-29T03:38:55;4.07;;;1.77;;
30337;SDS011;17143;51.888;5.408;2022-07-29T03:53:58;3.60;;;1.77;;
30337;SDS011;17143;51.888;5.408;2022-07-29T04:09:00;2.20;;;1.90;;
30337;SDS011;17143;51.888;5.408;2022-07-29T04:24:02;5.77;;;1.90;;
30337;SDS011;17143;51.888;5.408;2022-07-29T04:39:04;6.03;;;2.20;;
30337;SDS011;17143;51.888;5.408;2022-07-29T04:54:06;8.47;;;2.47;;
30337;SDS011;17143;51.888;5.408;2022-07-29T05:09:08;5.00;;;2.37;;
30337;SDS011;17143;51.888;5.408;2022-07-29T05:24:10;5.23;;;2.00;;
30337;SDS011;17143;51.888;5.408;2022-07-29T05:39:12;5.43;;;2.40;;
30337;SDS011;17143;51.888;5.408;2022-07-29T05:54:14;7.00;;;2.17;;
30337;SDS011;17143;51.888;5.408;2022-07-29T06:09:16;4.97;;;2.20;;
30337;SDS011;17143;51.888;5.408;2022-07-29T06:24:18;2.97;;;2.47;;
30337;SDS011;17143;51.888;5.408;2022-07-29T06:39:20;4.03;;;2.43;;
30337;SDS011;17143;51.888;5.408;2022-07-29T06:54:22;8.07;;;2.37;;
30337;SDS011;17143;51.888;5.408;2022-07-29T07:09:24;6.27;;;2.50;;
30337;SDS011;17143;51.888;5.408;2022-07-29T07:24:26;4.80;;;2.73;;
30337;SDS011;17143;51.888;5.408;2022-07-29T07:39:28;5.20;;;2.07;;
30337;SDS011;17143;51.888;5.408;2022-07-29T07:54:30;2.90;;;2.03;;
30337;SDS011;17143;51.888;5.408;2022-07-29T08:09:33;3.60;;;1.87;;
30337;SDS011;17143;51.888;5.408;2022-07-29T08:24:35;7.83;;;2.20;;
30337;SDS011;17143;51.888;5.408;2022-07-29T08:39:37;2.93;;;2.07;;
30337;SDS011;17143;51.888;5.408;2022-07-29T08:54:39;4.23;;;2.40;;
30337;SDS011;17143;51.888;5.408;2022-07-29T09:09:44;3.60;;;1.83;;
30337;SDS011;17143;51.888;5.408;2022-07-29T09:24:46;3.27;;;1.90;;
30337;SDS011;17143;51.888;5.408;2022-07-29T09:39:48;6.97;;;2.33;;
30337;SDS011;17143;51.888;5.408;2022-07-29T09:54:50;3.90;;;2.20;;
30337;SDS011;17143;51.888;5.408;2022-07-29T10:09:53;2.63;;;1.83;;
30337;SDS011;17143;51.888;5.408;2022-07-29T10:24:56;2.57;;;1.90;;
30337;SDS011;17143;51.888;5.408;2022-07-29T10:40:00;3.73;;;1.90;;
30337;SDS011;17143;51.888;5.408;2022-07-29T10:55:11;4.60;;;2.00;;
30337;SDS011;17143;51.888;5.408;2022-07-29T11:10:32;6.60;;;1.93;;
30337;SDS011;17143;51.888;5.408;2022-07-29T11:25:34;5.97;;;1.70;;
30337;SDS011;17143;51.888;5.408;2022-07-29T11:40:37;5.33;;;1.90;;
30337;SDS011;17143;51.888;5.408;2022-07-29T11:55:39;3.57;;;1.87;;
30337;SDS011;17143;51.888;5.408;2022-07-29T12:10:42;5.37;;;2.00;;
30337;SDS011;17143;51.888;5.408;2022-07-29T12:25:44;4.23;;;1.57;;
30337;SDS011;17143;51.888;5.408;2022-07-29T12:40:47;4.37;;;1.50;;
30337;SDS011;17143;51.888;5.408;2022-07-29T12:55:50;4.03;;;1.57;;
30337;SDS011;17143;51.888;5.408;2022-07-29T13:10:53;5.00;;;1.43;;
30337;SDS011;17143;51.888;5.408;2022-07-29T13:25:55;4.33;;;1.30;;
30337;SDS011;17143;51.888;5.408;2022-07-29T13:41:06;3.00;;;1.40;;
30337;SDS011;17143;51.888;5.408;2022-07-29T13:56:08;2.43;;;1.47;;
30337;SDS011;17143;51.888;5.408;2022-07-29T14:11:11;1.97;;;1.40;;
30337;SDS011;17143;51.888;5.408;2022-07-29T14:26:13;3.37;;;1.60;;
30337;SDS011;17143;51.888;5.408;2022-07-29T14:41:15;12.60;;;2.33;;
30337;SDS011;17143;51.888;5.408;2022-07-29T14:56:17;3.23;;;1.77;;
30337;SDS011;17143;51.888;5.408;2022-07-29T15:11:19;2.37;;;1.30;;
30337;SDS011;17143;51.888;5.408;2022-07-29T15:26:21;5.17;;;1.80;;
30337;SDS011;17143;51.888;5.408;2022-07-29T15:41:23;4.63;;;1.70;;
30337;SDS011;17143;51.888;5.408;2022-07-29T15:56:25;7.93;;;1.70;;
30337;SDS011;17143;51.888;5.408;2022-07-29T16:11:27;2.53;;;1.30;;
30337;SDS011;17143;51.888;5.408;2022-07-29T16:26:29;4.27;;;1.40;;
30337;SDS011;17143;51.888;5.408;2022-07-29T16:41:31;2.23;;;1.40;;
30337;SDS011;17143;51.888;5.408;2022-07-29T16:56:33;2.40;;;1.33;;
30337;SDS011;17143;51.888;5.408;2022-07-29T17:11:35;2.53;;;1.50;;
30337;SDS011;17143;51.888;5.408;2022-07-29T17:26:37;3.97;;;1.57;;
30337;SDS011;17143;51.888;5.408;2022-07-29T17:41:39;3.87;;;1.83;;
30337;SDS011;17143;51.888;5.408;2022-07-29T17:56:41;5.00;;;1.90;;
30337;SDS011;17143;51.888;5.408;2022-07-29T18:11:43;6.83;;;1.90;;
30337;SDS011;17143;51.888;5.408;2022-07-29T18:26:45;5.03;;;1.80;;
30337;SDS011;17143;51.888;5.408;2022-07-29T18:41:47;6.03;;;1.67;;
30337;SDS011;17143;51.888;5.408;2022-07-29T18:56:49;6.03;;;1.63;;
30337;SDS011;17143;51.888;5.408;2022-07-29T19:11:51;2.00;;;1.00;;
30337;SDS011;17143;51.888;5.408;2022-07-29T19:26:53;6.03;;;1.10;;
30337;SDS011;17143;51.888;5.408;2022-07-29T19:41:55;5.60;;;1.53;;
30337;SDS011;17143;51.888;5.408;2022-07-29T19:56:57;7.43;;;1.80;;
30337;SDS011;17143;51.888;5.408;2022-07-29T20:11:59;10.27;;;1.93;;
30337;SDS011;17143;51.888;5.408;2022-07-29T20:27:01;4.73;;;2.17;;
30337;SDS011;17143;51.888;5.408;2022-07-29T20:42:04;4.27;;;1.90;;
30337;SDS011;17143;51.888;5.408;2022-07-29T20:57:07;6.60;;;2.37;;
30337;SDS011;17143;51.888;5.408;2022-07-29T21:12:09;5.37;;;2.80;;
30337;SDS011;17143;51.888;5.408;2022-07-29T21:27:11;9.03;;;3.30;;
30337;SDS011;17143;51.888;5.408;2022-07-29T21:42:13;4.43;;;2.83;;
30337;SDS011;17143;51.888;5.408;2022-07-29T21:57:15;4.60;;;3.13;;
30337;SDS011;17143;51.888;5.408;2022-07-29T22:12:17;8.03;;;3.70;;
30337;SDS011;17143;51.888;5.408;2022-07-29T22:27:19;8.73;;;3.43;;
30337;SDS011;17143;51.888;5.408;2022-07-29T22:42:21;8.87;;;3.73;;
30337;SDS011;17143;51.888;5.408;2022-07-29T22:57:23;10.13;;;3.73;;
30337;SDS011;17143;51.888;5.408;2022-07-29T23:12:25;9.93;;;4.27;;
30337;SDS011;17143;51.888;5.408;2022-07-29T23:27:27;13.60;;;4.57;;
30337;SDS011;17143;51.888;5.408;2022-07-29T23:42:29;8.90;;;4.30;;
30337;SDS011;17143;51.888;5.408;2022-07-29T23:57:31;11.20;;;5.97;;
